sensor_id;sensor_type;location;lat;lon;timestamp;temperature;humidity
35563;DHT22;21665;40.108;18.302;2022-09-17T00:01:37;24.40;99.90
35563;DHT22;21665;40.108;18.302;2022-09-17T00:04:04;24.40;99.90
35563;DHT22;21665;40.108;18.302;2022-09-17T00:06:35;24.40;99.90
35563;DHT22;21665;40.108;18.302;2022-09-17T00:09:05;24.50;99.90
35563;DHT22;21665;40.108;18.302;2022-09-17T00:11:35;24.50;99.90
35563;DHT22;21665;40.108;18.302;2022-09-17T00:14:03;24.50;99.90
35563;DHT22;21665;40.108;18.302;2022-09-17T00:16:33;24.50;99.90
35563;DHT22;21665;40.108;18.302;2022-09-17T00:19:02;24.50;99.90
35563;DHT22;21665;40.108;18.302;2022-09-17T00:21:30;24.50;99.90
35563;DHT22;21665;40.108;18.302;2022-09-17T00:24:04;24.50;99.90
35563;DHT22;21665;40.108;18.302;2022-09-17T00:26:33;24.50;99.90
35563;DHT22;21665;40.108;18.302;2022-09-17T00:29:05;24.50;99.90
35563;DHT22;21665;40.108;18.302;2022-09-17T00:31:32;24.50;99.90
35563;DHT22;21665;40.108;18.302;2022-09-17T00:33:59;24.50;99.90
35563;DHT22;21665;40.108;18.302;2022-09-17T00:36:27;24.50;99.90
35563;DHT22;21665;40.108;18.302;2022-09-17T00:38:56;24.50;99.90
35563;DHT22;21665;40.108;18.302;2022-09-17T00:41:26;24.50;99.90
35563;DHT22;21665;40.108;18.302;2022-09-17T00:43:56;24.50;99.90
35563;DHT22;21665;40.108;18.302;2022-09-17T00:46:34;24.50;99.90
35563;DHT22;21665;40.108;18.302;2022-09-17T00:49:13;24.50;99.90
35563;DHT22;21665;40.108;18.302;2022-09-17T00:51:52;24.50;99.90
35563;DHT22;21665;40.108;18.302;2022-09-17T00:54:23;24.60;99.90
35563;DHT22;21665;40.108;18.302;2022-09-17T00:56:51;24.60;99.90
35563;DHT22;21665;40.108;18.302;2022-09-17T00:59:19;24.60;99.90
35563;DHT22;21665;40.108;18.302;2022-09-17T01:01:50;24.70;99.90
35563;DHT22;21665;40.108;18.302;2022-09-17T01:04:24;24.70;99.90
35563;DHT22;21665;40.108;18.302;2022-09-17T01:09:51;24.70;99.90
35563;DHT22;21665;40.108;18.302;2022-09-17T01:12:49;24.60;99.90
35563;DHT22;21665;40.108;18.302;2022-09-17T01:15:48;24.60;99.90
35563;DHT22;21665;40.108;18.302;2022-09-17T01:22:06;24.60;99.90
35563;DHT22;21665;40.108;18.302;2022-09-17T01:24:45;24.60;99.90
35563;DHT22;21665;40.108;18.302;2022-09-17T01:27:56;24.60;99.90
35563;DHT22;21665;40.108;18.302;2022-09-17T01:42:14;24.30;99.90
35563;DHT22;21665;40.108;18.302;2022-09-17T01:44:55;24.20;99.90
35563;DHT22;21665;40.108;18.302;2022-09-17T01:47:49;24.20;99.90
35563;DHT22;21665;40.108;18.302;2022-09-17T01:50:27;24.10;99.90
35563;DHT22;21665;40.108;18.302;2022-09-17T01:52:56;23.90;99.90
35563;DHT22;21665;40.108;18.302;2022-09-17T01:55:28;23.90;99.90
35563;DHT22;21665;40.108;18.302;2022-09-17T01:58:18;23.80;99.90
35563;DHT22;21665;40.108;18.302;2022-09-17T02:00:51;23.80;99.90
35563;DHT22;21665;40.108;18.302;2022-09-17T02:03:28;23.80;99.90
35563;DHT22;21665;40.108;18.302;2022-09-17T02:06:18;23.70;99.90
35563;DHT22;21665;40.108;18.302;2022-09-17T02:08:56;23.70;99.90
35563;DHT22;21665;40.108;18.302;2022-09-17T02:11:26;23.60;99.90
35563;DHT22;21665;40.108;18.302;2022-09-17T02:14:02;23.60;99.90
35563;DHT22;21665;40.108;18.302;2022-09-17T02:16:34;23.50;99.90
35563;DHT22;21665;40.108;18.302;2022-09-17T02:21:52;23.50;99.90
35563;DHT22;21665;40.108;18.302;2022-09-17T02:24:25;23.40;99.90
35563;DHT22;21665;40.108;18.302;2022-09-17T02:27:30;23.40;99.90
35563;DHT22;21665;40.108;18.302;2022-09-17T02:30:00;23.20;99.90
35563;DHT22;21665;40.108;18.302;2022-09-17T02:32:36;23.20;99.90
35563;DHT22;21665;40.108;18.302;2022-09-17T02:35:04;23.20;99.90
35563;DHT22;21665;40.108;18.302;2022-09-17T02:37:37;23.10;99.90
35563;DHT22;21665;40.108;18.302;2022-09-17T02:40:05;23.10;99.90
35563;DHT22;21665;40.108;18.302;2022-09-17T02:45:34;23.20;99.90
35563;DHT22;21665;40.108;18.302;2022-09-17T02:54:27;23.20;99.90
35563;DHT22;21665;40.108;18.302;2022-09-17T03:02:42;23.20;99.90
35563;DHT22;21665;40.108;18.302;2022-09-17T03:05:21;23.30;99.90
35563;DHT22;21665;40.108;18.302;2022-09-17T03:07:54;23.20;99.90
35563;DHT22;21665;40.108;18.302;2022-09-17T03:10:22;23.20;99.90
35563;DHT22;21665;40.108;18.302;2022-09-17T03:12:49;23.10;99.90
35563;DHT22;21665;40.108;18.302;2022-09-17T03:15:19;23.10;99.90
35563;DHT22;21665;40.108;18.302;2022-09-17T03:17:46;23.10;99.90
35563;DHT22;21665;40.108;18.302;2022-09-17T03:20:12;23.10;99.90
35563;DHT22;21665;40.108;18.302;2022-09-17T03:22:42;23.10;99.90
35563;DHT22;21665;40.108;18.302;2022-09-17T03:25:08;23.00;99.90
35563;DHT22;21665;40.108;18.302;2022-09-17T03:27:36;23.00;99.90
35563;DHT22;21665;40.108;18.302;2022-09-17T03:30:04;23.00;99.90
35563;DHT22;21665;40.108;18.302;2022-09-17T03:32:32;23.00;99.90
35563;DHT22;21665;40.108;18.302;2022-09-17T03:34:58;23.00;99.90
35563;DHT22;21665;40.108;18.302;2022-09-17T03:37:25;23.00;99.90
35563;DHT22;21665;40.108;18.302;2022-09-17T03:39:58;23.00;99.90
35563;DHT22;21665;40.108;18.302;2022-09-17T03:42:24;23.00;99.90
35563;DHT22;21665;40.108;18.302;2022-09-17T03:44:51;23.00;99.90
35563;DHT22;21665;40.108;18.302;2022-09-17T03:47:17;23.00;99.90
35563;DHT22;21665;40.108;18.302;2022-09-17T03:49:44;23.10;99.90
35563;DHT22;21665;40.108;18.302;2022-09-17T03:52:10;23.20;99.90
35563;DHT22;21665;40.108;18.302;2022-09-17T03:54:37;23.30;99.90
35563;DHT22;21665;40.108;18.302;2022-09-17T03:57:06;23.40;99.90
35563;DHT22;21665;40.108;18.302;2022-09-17T03:59:33;23.50;99.90
35563;DHT22;21665;40.108;18.302;2022-09-17T04:01:59;23.60;99.90
35563;DHT22;21665;40.108;18.302;2022-09-17T04:04:29;23.60;99.90
35563;DHT22;21665;40.108;18.302;2022-09-17T04:06:55;23.80;99.90
35563;DHT22;21665;40.108;18.302;2022-09-17T04:09:22;23.90;99.90
35563;DHT22;21665;40.108;18.302;2022-09-17T04:11:49;24.20;99.90
35563;DHT22;21665;40.108;18.302;2022-09-17T04:14:15;24.30;99.90
35563;DHT22;21665;40.108;18.302;2022-09-17T04:16:42;24.40;99.90
35563;DHT22;21665;40.108;18.302;2022-09-17T04:19:08;24.60;99.90
35563;DHT22;21665;40.108;18.302;2022-09-17T04:21:35;24.70;99.90
35563;DHT22;21665;40.108;18.302;2022-09-17T04:24:05;24.70;99.90
35563;DHT22;21665;40.108;18.302;2022-09-17T04:26:31;24.80;99.90
35563;DHT22;21665;40.108;18.302;2022-09-17T04:28:58;24.90;99.90
35563;DHT22;21665;40.108;18.302;2022-09-17T04:31:26;24.90;99.90
35563;DHT22;21665;40.108;18.302;2022-09-17T04:33:53;24.90;99.90
35563;DHT22;21665;40.108;18.302;2022-09-17T04:36:19;24.90;99.90
35563;DHT22;21665;40.108;18.302;2022-09-17T04:38:49;24.90;99.90
35563;DHT22;21665;40.108;18.302;2022-09-17T04:41:28;25.00;99.90
35563;DHT22;21665;40.108;18.302;2022-09-17T04:43:57;25.00;99.90
35563;DHT22;21665;40.108;18.302;2022-09-17T04:46:30;25.10;99.90
35563;DHT22;21665;40.108;18.302;2022-09-17T04:48:56;25.10;99.90
35563;DHT22;21665;40.108;18.302;2022-09-17T04:51:23;25.20;99.90
35563;DHT22;21665;40.108;18.302;2022-09-17T04:53:49;25.20;99.90
35563;DHT22;21665;40.108;18.302;2022-09-17T04:56:16;25.40;99.90
35563;DHT22;21665;40.108;18.302;2022-09-17T04:58:42;25.40;99.90
35563;DHT22;21665;40.108;18.302;2022-09-17T05:01:09;25.40;99.90
35563;DHT22;21665;40.108;18.302;2022-09-17T05:03:36;25.50;99.90
35563;DHT22;21665;40.108;18.302;2022-09-17T05:06:02;25.50;99.90
35563;DHT22;21665;40.108;18.302;2022-09-17T05:08:32;25.50;99.90
35563;DHT22;21665;40.108;18.302;2022-09-17T05:11:02;25.60;99.90
35563;DHT22;21665;40.108;18.302;2022-09-17T05:13:28;25.60;99.90
35563;DHT22;21665;40.108;18.302;2022-09-17T05:15:55;25.60;99.90
35563;DHT22;21665;40.108;18.302;2022-09-17T05:18:22;25.70;99.90
35563;DHT22;21665;40.108;18.302;2022-09-17T05:20:48;25.70;99.90
35563;DHT22;21665;40.108;18.302;2022-09-17T05:23:15;25.80;99.90
35563;DHT22;21665;40.108;18.302;2022-09-17T05:25:43;25.90;99.90
35563;DHT22;21665;40.108;18.302;2022-09-17T05:28:09;26.00;99.90
35563;DHT22;21665;40.108;18.302;2022-09-17T05:30:36;26.10;99.90
35563;DHT22;21665;40.108;18.302;2022-09-17T05:33:05;26.20;99.90
35563;DHT22;21665;40.108;18.302;2022-09-17T05:35:33;26.20;99.90
35563;DHT22;21665;40.108;18.302;2022-09-17T05:38:03;26.20;99.90
35563;DHT22;21665;40.108;18.302;2022-09-17T05:40:31;26.10;99.90
35563;DHT22;21665;40.108;18.302;2022-09-17T05:43:00;26.10;99.90
35563;DHT22;21665;40.108;18.302;2022-09-17T05:45:28;26.10;99.90
35563;DHT22;21665;40.108;18.302;2022-09-17T05:47:57;26.10;99.90
35563;DHT22;21665;40.108;18.302;2022-09-17T05:50:28;26.10;99.90
35563;DHT22;21665;40.108;18.302;2022-09-17T05:52:55;26.10;99.90
35563;DHT22;21665;40.108;18.302;2022-09-17T05:55:22;26.00;99.90
35563;DHT22;21665;40.108;18.302;2022-09-17T05:57:50;26.00;99.90
35563;DHT22;21665;40.108;18.302;2022-09-17T06:00:17;26.00;99.90
35563;DHT22;21665;40.108;18.302;2022-09-17T06:02:44;26.00;99.90
35563;DHT22;21665;40.108;18.302;2022-09-17T06:05:16;25.90;99.90
35563;DHT22;21665;40.108;18.302;2022-09-17T06:07:43;25.90;99.90
35563;DHT22;21665;40.108;18.302;2022-09-17T06:10:09;25.90;99.90
35563;DHT22;21665;40.108;18.302;2022-09-17T06:12:35;26.00;99.90
35563;DHT22;21665;40.108;18.302;2022-09-17T06:15:05;26.10;99.90
35563;DHT22;21665;40.108;18.302;2022-09-17T06:17:33;26.20;99.90
35563;DHT22;21665;40.108;18.302;2022-09-17T06:20:01;26.40;99.90
35563;DHT22;21665;40.108;18.302;2022-09-17T06:22:28;27.00;99.90
35563;DHT22;21665;40.108;18.302;2022-09-17T06:24:54;27.40;99.90
35563;DHT22;21665;40.108;18.302;2022-09-17T06:27:20;27.50;99.90
35563;DHT22;21665;40.108;18.302;2022-09-17T06:29:47;27.70;99.90
35563;DHT22;21665;40.108;18.302;2022-09-17T06:32:13;28.00;99.90
35563;DHT22;21665;40.108;18.302;2022-09-17T06:34:42;28.20;99.90
35563;DHT22;21665;40.108;18.302;2022-09-17T06:37:09;27.70;99.90
35563;DHT22;21665;40.108;18.302;2022-09-17T06:39:35;27.50;99.90
35563;DHT22;21665;40.108;18.302;2022-09-17T06:42:08;27.50;99.90
35563;DHT22;21665;40.108;18.302;2022-09-17T07:02:21;27.00;99.90
35563;DHT22;21665;40.108;18.302;2022-09-17T07:04:50;27.40;99.90
35563;DHT22;21665;40.108;18.302;2022-09-17T07:07:20;27.80;99.90
35563;DHT22;21665;40.108;18.302;2022-09-17T07:09:54;27.60;99.90
35563;DHT22;21665;40.108;18.302;2022-09-17T07:12:21;27.50;99.90
35563;DHT22;21665;40.108;18.302;2022-09-17T07:14:48;27.60;99.90
35563;DHT22;21665;40.108;18.302;2022-09-17T07:17:15;27.60;99.90
35563;DHT22;21665;40.108;18.302;2022-09-17T07:19:41;27.50;99.90
35563;DHT22;21665;40.108;18.302;2022-09-17T07:22:08;27.50;99.90
35563;DHT22;21665;40.108;18.302;2022-09-17T07:24:34;27.20;99.90
35563;DHT22;21665;40.108;18.302;2022-09-17T07:27:01;27.00;99.90
35563;DHT22;21665;40.108;18.302;2022-09-17T07:29:28;26.90;99.90
35563;DHT22;21665;40.108;18.302;2022-09-17T07:31:54;26.80;99.90
35563;DHT22;21665;40.108;18.302;2022-09-17T07:42:33;26.60;99.90
35563;DHT22;21665;40.108;18.302;2022-09-17T07:45:16;26.70;99.90
35563;DHT22;21665;40.108;18.302;2022-09-17T07:47:52;26.80;99.90
35563;DHT22;21665;40.108;18.302;2022-09-17T07:50:26;26.80;99.90
35563;DHT22;21665;40.108;18.302;2022-09-17T07:52:54;26.90;99.90
35563;DHT22;21665;40.108;18.302;2022-09-17T07:55:20;27.00;99.90
35563;DHT22;21665;40.108;18.302;2022-09-17T07:57:52;27.00;99.90
35563;DHT22;21665;40.108;18.302;2022-09-17T08:00:18;27.00;99.90
35563;DHT22;21665;40.108;18.302;2022-09-17T08:02:51;26.90;99.90
35563;DHT22;21665;40.108;18.302;2022-09-17T08:05:18;26.90;99.90
35563;DHT22;21665;40.108;18.302;2022-09-17T08:07:52;26.80;99.90
35563;DHT22;21665;40.108;18.302;2022-09-17T08:10:20;26.70;99.90
35563;DHT22;21665;40.108;18.302;2022-09-17T08:12:57;26.70;99.90
35563;DHT22;21665;40.108;18.302;2022-09-17T08:15:25;26.10;99.90
35563;DHT22;21665;40.108;18.302;2022-09-17T08:34:05;25.50;99.90
35563;DHT22;21665;40.108;18.302;2022-09-17T09:18:20;25.20;99.90
35563;DHT22;21665;40.108;18.302;2022-09-17T09:20:54;25.20;99.90
35563;DHT22;21665;40.108;18.302;2022-09-17T09:26:15;25.30;99.90
35563;DHT22;21665;40.108;18.302;2022-09-17T09:34:02;26.60;99.90
35563;DHT22;21665;40.108;18.302;2022-09-17T09:36:30;27.30;99.90
35563;DHT22;21665;40.108;18.302;2022-09-17T09:39:20;27.70;99.90
35563;DHT22;21665;40.108;18.302;2022-09-17T09:41:57;28.20;99.90
35563;DHT22;21665;40.108;18.302;2022-09-17T09:44:26;28.60;99.90
35563;DHT22;21665;40.108;18.302;2022-09-17T09:49:51;28.90;99.90
35563;DHT22;21665;40.108;18.302;2022-09-17T09:58:28;29.00;99.90
35563;DHT22;21665;40.108;18.302;2022-09-17T10:00:56;29.00;99.90
35563;DHT22;21665;40.108;18.302;2022-09-17T10:05:56;29.30;99.90
35563;DHT22;21665;40.108;18.302;2022-09-17T10:08:28;29.50;99.90
35563;DHT22;21665;40.108;18.302;2022-09-17T10:10:58;29.60;99.90
35563;DHT22;21665;40.108;18.302;2022-09-17T10:13:31;29.70;99.90
35563;DHT22;21665;40.108;18.302;2022-09-17T10:16:27;29.40;99.90
35563;DHT22;21665;40.108;18.302;2022-09-17T10:21:36;28.60;99.90
35563;DHT22;21665;40.108;18.302;2022-09-17T10:24:23;28.20;99.90
35563;DHT22;21665;40.108;18.302;2022-09-17T10:26:59;28.00;99.90
35563;DHT22;21665;40.108;18.302;2022-09-17T10:29:26;27.70;99.90
35563;DHT22;21665;40.108;18.302;2022-09-17T10:31:55;27.50;99.90
35563;DHT22;21665;40.108;18.302;2022-09-17T10:34:25;27.50;99.90
35563;DHT22;21665;40.108;18.302;2022-09-17T10:36:52;27.40;99.90
35563;DHT22;21665;40.108;18.302;2022-09-17T10:44:33;27.20;99.90
35563;DHT22;21665;40.108;18.302;2022-09-17T10:52:34;27.30;99.90
35563;DHT22;21665;40.108;18.302;2022-09-17T11:09:29;27.60;99.90
35563;DHT22;21665;40.108;18.302;2022-09-17T11:21:03;26.80;99.90
35563;DHT22;21665;40.108;18.302;2022-09-17T11:24:10;26.60;99.90
35563;DHT22;21665;40.108;18.302;2022-09-17T11:36:12;26.10;99.90
35563;DHT22;21665;40.108;18.302;2022-09-17T11:38:49;26.30;99.90
35563;DHT22;21665;40.108;18.302;2022-09-17T11:41:22;26.50;99.90
35563;DHT22;21665;40.108;18.302;2022-09-17T11:44:31;26.80;99.90
35563;DHT22;21665;40.108;18.302;2022-09-17T11:47:14;27.20;99.90
35563;DHT22;21665;40.108;18.302;2022-09-17T11:52:27;27.60;99.90
35563;DHT22;21665;40.108;18.302;2022-09-17T11:55:15;27.70;99.90
35563;DHT22;21665;40.108;18.302;2022-09-17T11:57:43;27.70;99.90
35563;DHT22;21665;40.108;18.302;2022-09-17T12:00:19;27.80;99.90
35563;DHT22;21665;40.108;18.302;2022-09-17T12:02:59;27.90;99.90
35563;DHT22;21665;40.108;18.302;2022-09-17T12:05:35;27.90;99.90
35563;DHT22;21665;40.108;18.302;2022-09-17T12:10:41;28.10;99.90
35563;DHT22;21665;40.108;18.302;2022-09-17T12:13:44;28.20;99.90
35563;DHT22;21665;40.108;18.302;2022-09-17T12:16:19;28.30;99.90
35563;DHT22;21665;40.108;18.302;2022-09-17T12:21:34;28.40;99.90
35563;DHT22;21665;40.108;18.302;2022-09-17T12:24:26;28.60;99.90
35563;DHT22;21665;40.108;18.302;2022-09-17T12:27:16;28.60;99.90
35563;DHT22;21665;40.108;18.302;2022-09-17T12:30:21;28.50;99.90
35563;DHT22;21665;40.108;18.302;2022-09-17T12:33:13;28.50;99.90
35563;DHT22;21665;40.108;18.302;2022-09-17T12:41:49;28.50;99.90
35563;DHT22;21665;40.108;18.302;2022-09-17T12:44:51;28.50;99.90
35563;DHT22;21665;40.108;18.302;2022-09-17T12:47:46;28.40;99.90
35563;DHT22;21665;40.108;18.302;2022-09-17T12:53:29;28.60;99.90
35563;DHT22;21665;40.108;18.302;2022-09-17T12:56:24;28.70;99.90
35563;DHT22;21665;40.108;18.302;2022-09-17T13:07:12;28.90;99.90
35563;DHT22;21665;40.108;18.302;2022-09-17T13:12:30;29.90;99.90
35563;DHT22;21665;40.108;18.302;2022-09-17T13:18:12;30.10;99.90
35563;DHT22;21665;40.108;18.302;2022-09-17T13:23:44;30.00;99.90
35563;DHT22;21665;40.108;18.302;2022-09-17T13:28:58;29.80;99.90
35563;DHT22;21665;40.108;18.302;2022-09-17T13:34:04;29.70;99.90
35563;DHT22;21665;40.108;18.302;2022-09-17T13:37:04;29.60;99.90
35563;DHT22;21665;40.108;18.302;2022-09-17T13:39:37;29.60;99.90
35563;DHT22;21665;40.108;18.302;2022-09-17T13:42:18;29.50;99.90
35563;DHT22;21665;40.108;18.302;2022-09-17T13:45:02;29.50;99.90
35563;DHT22;21665;40.108;18.302;2022-09-17T13:47:31;29.60;99.90
35563;DHT22;21665;40.108;18.302;2022-09-17T13:50:10;29.60;99.90
35563;DHT22;21665;40.108;18.302;2022-09-17T13:52:51;29.60;99.90
35563;DHT22;21665;40.108;18.302;2022-09-17T13:58:40;29.60;99.90
35563;DHT22;21665;40.108;18.302;2022-09-17T14:01:13;29.60;99.90
35563;DHT22;21665;40.108;18.302;2022-09-17T14:08:58;29.60;99.90
35563;DHT22;21665;40.108;18.302;2022-09-17T14:13:57;29.40;99.90
35563;DHT22;21665;40.108;18.302;2022-09-17T14:16:46;29.50;99.90
35563;DHT22;21665;40.108;18.302;2022-09-17T14:24:57;29.50;99.90
35563;DHT22;21665;40.108;18.302;2022-09-17T14:27:51;29.40;99.90
35563;DHT22;21665;40.108;18.302;2022-09-17T14:30:30;29.40;99.90
35563;DHT22;21665;40.108;18.302;2022-09-17T14:33:15;29.20;99.90
35563;DHT22;21665;40.108;18.302;2022-09-17T14:35:49;29.10;99.90
35563;DHT22;21665;40.108;18.302;2022-09-17T14:38:23;29.20;99.90
35563;DHT22;21665;40.108;18.302;2022-09-17T14:41:00;29.30;99.90
35563;DHT22;21665;40.108;18.302;2022-09-17T14:46:38;29.20;99.90
35563;DHT22;21665;40.108;18.302;2022-09-17T14:49:22;29.20;99.90
35563;DHT22;21665;40.108;18.302;2022-09-17T14:51:59;29.30;99.90
35563;DHT22;21665;40.108;18.302;2022-09-17T14:54:27;29.30;99.90
35563;DHT22;21665;40.108;18.302;2022-09-17T14:59:57;29.20;99.90
35563;DHT22;21665;40.108;18.302;2022-09-17T15:05:01;29.20;99.90
35563;DHT22;21665;40.108;18.302;2022-09-17T15:40:24;28.40;99.90
35563;DHT22;21665;40.108;18.302;2022-09-17T15:43:03;28.30;99.90
35563;DHT22;21665;40.108;18.302;2022-09-17T15:45:34;28.20;99.90
35563;DHT22;21665;40.108;18.302;2022-09-17T15:48:04;28.10;99.90
35563;DHT22;21665;40.108;18.302;2022-09-17T15:50:34;28.10;99.90
35563;DHT22;21665;40.108;18.302;2022-09-17T15:53:37;28.00;99.90
35563;DHT22;21665;40.108;18.302;2022-09-17T15:59:04;27.80;99.90
35563;DHT22;21665;40.108;18.302;2022-09-17T16:20:36;27.20;99.90
35563;DHT22;21665;40.108;18.302;2022-09-17T16:23:03;27.10;99.90
35563;DHT22;21665;40.108;18.302;2022-09-17T16:25:30;27.00;99.90
35563;DHT22;21665;40.108;18.302;2022-09-17T16:28:08;26.90;99.90
35563;DHT22;21665;40.108;18.302;2022-09-17T16:30:35;26.80;99.90
35563;DHT22;21665;40.108;18.302;2022-09-17T16:33:02;26.70;99.90
35563;DHT22;21665;40.108;18.302;2022-09-17T16:35:31;26.70;99.90
35563;DHT22;21665;40.108;18.302;2022-09-17T16:37:58;26.60;99.90
35563;DHT22;21665;40.108;18.302;2022-09-17T16:40:30;26.50;99.90
35563;DHT22;21665;40.108;18.302;2022-09-17T16:43:01;26.50;99.90
35563;DHT22;21665;40.108;18.302;2022-09-17T16:45:29;26.40;99.90
35563;DHT22;21665;40.108;18.302;2022-09-17T16:47:56;26.40;99.90
35563;DHT22;21665;40.108;18.302;2022-09-17T16:50:26;26.30;99.90
35563;DHT22;21665;40.108;18.302;2022-09-17T16:52:54;26.30;99.90
35563;DHT22;21665;40.108;18.302;2022-09-17T16:55:22;26.20;99.90
35563;DHT22;21665;40.108;18.302;2022-09-17T16:57:56;26.20;99.90
35563;DHT22;21665;40.108;18.302;2022-09-17T17:03:02;26.10;99.90
35563;DHT22;21665;40.108;18.302;2022-09-17T17:08:44;26.00;99.90
35563;DHT22;21665;40.108;18.302;2022-09-17T17:11:16;26.00;99.90
35563;DHT22;21665;40.108;18.302;2022-09-17T17:13:46;25.90;99.90
35563;DHT22;21665;40.108;18.302;2022-09-17T17:16:25;25.90;99.90
35563;DHT22;21665;40.108;18.302;2022-09-17T17:18:52;25.80;99.90
35563;DHT22;21665;40.108;18.302;2022-09-17T17:21:19;25.80;99.90
35563;DHT22;21665;40.108;18.302;2022-09-17T17:24:06;25.80;99.90
35563;DHT22;21665;40.108;18.302;2022-09-17T17:26:34;25.80;99.90
35563;DHT22;21665;40.108;18.302;2022-09-17T17:29:01;25.70;99.90
35563;DHT22;21665;40.108;18.302;2022-09-17T17:31:45;25.60;99.90
35563;DHT22;21665;40.108;18.302;2022-09-17T17:59:32;25.30;99.90
35563;DHT22;21665;40.108;18.302;2022-09-17T18:02:24;25.20;99.90
35563;DHT22;21665;40.108;18.302;2022-09-17T18:05:06;25.20;99.90
35563;DHT22;21665;40.108;18.302;2022-09-17T18:07:35;25.10;99.90
35563;DHT22;21665;40.108;18.302;2022-09-17T18:10:02;25.00;99.90
35563;DHT22;21665;40.108;18.302;2022-09-17T18:12:36;25.00;99.90
35563;DHT22;21665;40.108;18.302;2022-09-17T18:15:26;24.90;99.90
35563;DHT22;21665;40.108;18.302;2022-09-17T18:17:53;24.90;99.90
35563;DHT22;21665;40.108;18.302;2022-09-17T18:20:20;24.90;99.90
35563;DHT22;21665;40.108;18.302;2022-09-17T18:22:47;24.90;99.90
35563;DHT22;21665;40.108;18.302;2022-09-17T18:25:14;24.90;99.90
35563;DHT22;21665;40.108;18.302;2022-09-17T18:27:41;24.90;99.90
35563;DHT22;21665;40.108;18.302;2022-09-17T18:30:09;24.90;99.90
